createdAt,value
2022-12-27T00:03:35.404Z,12.80
2022-12-27T00:14:04.005Z,12.50
2022-12-27T00:34:57.519Z,15.80
2022-12-27T00:45:25.185Z,13.50
2022-12-27T00:55:52.813Z,12.10
2022-12-27T01:06:23.123Z,10.90
2022-12-27T01:16:51.336Z,11.80
2022-12-27T01:27:19.573Z,10.70
2022-12-27T01:37:47.123Z,4.90
2022-12-27T01:48:19.725Z,8.70
2022-12-27T01:58:51.970Z,8.20
2022-12-27T02:09:26.842Z,9.00
2022-12-27T02:20:02.659Z,8.50
2022-12-27T02:30:32.859Z,11.30
2022-12-27T02:41:21.687Z,9.30
2022-12-27T03:03:25.035Z,10.40
2022-12-27T03:14:16.334Z,10.80
2022-12-27T03:25:13.508Z,12.20
2022-12-27T03:36:04.918Z,7.60
2022-12-27T03:46:35.972Z,7.30
2022-12-27T03:57:07.222Z,5.30
2022-12-27T04:07:34.773Z,1.50
2022-12-27T04:18:19.687Z,1.20
2022-12-27T04:29:04.757Z,1.00
2022-12-27T04:39:33.420Z,5.40
2022-12-27T04:50:18.914Z,2.70
2022-12-27T05:01:06.698Z,3.70
2022-12-27T05:11:56.074Z,2.60
2022-12-27T05:22:41.231Z,3.30
2022-12-27T05:33:09.644Z,2.70
2022-12-27T05:43:38.565Z,2.80
2022-12-27T05:54:06.503Z,3.10
2022-12-27T06:04:34.125Z,3.40
2022-12-27T06:15:01.686Z,2.40
2022-12-27T06:25:29.225Z,2.60
2022-12-27T06:35:56.965Z,2.20
2022-12-27T06:46:25.493Z,3.60
2022-12-27T06:56:53.207Z,6.10
2022-12-27T07:07:20.713Z,5.60
2022-12-27T07:17:48.227Z,2.60
2022-12-27T07:28:16.004Z,4.10
2022-12-27T07:38:43.898Z,5.80
2022-12-27T07:49:17.655Z,5.10
2022-12-27T07:59:45.502Z,5.80
2022-12-27T08:10:13.882Z,10.20
2022-12-27T08:20:41.587Z,5.90
2022-12-27T08:31:12.445Z,7.20
2022-12-27T08:41:40.170Z,6.80
2022-12-27T08:52:08.230Z,5.80
2022-12-27T09:02:35.730Z,8.40
2022-12-27T09:13:03.729Z,7.60
2022-12-27T09:23:32.442Z,4.90
2022-12-27T09:34:00.552Z,4.30
2022-12-27T09:44:37.529Z,5.00
2022-12-27T09:55:13.236Z,6.80
2022-12-27T10:05:45.240Z,3.80
2022-12-27T10:16:24.336Z,3.30
2022-12-27T10:26:53.499Z,5.90
2022-12-27T10:37:21.072Z,4.00
2022-12-27T10:47:48.711Z,3.50
2022-12-27T10:58:38.366Z,3.60
2022-12-27T11:09:25.795Z,5.90
2022-12-27T11:19:54.177Z,6.70
2022-12-27T11:30:28.435Z,4.20
2022-12-27T11:41:03.442Z,3.80
2022-12-27T11:51:52.192Z,3.10
2022-12-27T12:02:39.902Z,5.50
2022-12-27T12:13:20.019Z,3.30
2022-12-27T12:24:03.766Z,2.70
2022-12-27T12:34:47.181Z,6.50
2022-12-27T12:45:25.391Z,4.80
2022-12-27T12:56:07.039Z,3.80
2022-12-27T13:07:02.137Z,4.70
2022-12-27T13:17:37.316Z,6.80
2022-12-27T13:28:26.767Z,3.10
2022-12-27T13:39:18.555Z,2.90
2022-12-27T13:50:13.755Z,6.70
2022-12-27T14:00:49.542Z,3.30
2022-12-27T14:11:33.643Z,6.80
2022-12-27T14:22:23.228Z,7.90
2022-12-27T14:33:35.343Z,6.10
2022-12-27T14:44:35.303Z,8.60
2022-12-27T14:55:29.713Z,6.60
2022-12-27T15:06:12.197Z,12.00
2022-12-27T15:16:50.659Z,13.00
2022-12-27T15:27:27.827Z,11.40
2022-12-27T15:38:04.314Z,9.70
2022-12-27T15:49:02.749Z,10.30
2022-12-27T15:59:46.868Z,12.60
2022-12-27T16:10:48.829Z,10.00
2022-12-27T16:21:21.084Z,11.20
2022-12-27T16:31:51.949Z,10.90
2022-12-27T16:42:28.220Z,11.20
2022-12-27T16:53:10.092Z,24.70
2022-12-27T17:03:51.242Z,14.60
2022-12-27T17:14:25.427Z,12.30
2022-12-27T17:25:00.154Z,14.50
2022-12-27T17:35:34.239Z,11.10
2022-12-27T17:46:18.932Z,12.50
2022-12-27T17:57:05.764Z,9.90
2022-12-27T18:07:36.099Z,13.00
2022-12-27T18:18:06.136Z,12.10
2022-12-27T18:28:35.648Z,13.30
2022-12-27T18:39:06.398Z,16.10
2022-12-27T18:49:36.321Z,14.80
2022-12-27T19:00:14.556Z,14.40
2022-12-27T19:10:50.014Z,15.40
2022-12-27T19:21:19.026Z,20.40
2022-12-27T19:31:54.519Z,20.80
2022-12-27T19:42:29.716Z,19.40
2022-12-27T19:52:57.387Z,15.90
2022-12-27T20:03:25.609Z,15.90
2022-12-27T20:13:53.199Z,17.80
2022-12-27T20:24:20.824Z,14.60
2022-12-27T20:34:48.539Z,15.40
2022-12-27T20:45:16.223Z,14.70
2022-12-27T20:55:44.275Z,22.60
2022-12-27T21:06:14.456Z,17.50
2022-12-27T21:16:42.156Z,16.50
2022-12-27T21:27:09.650Z,13.80
2022-12-27T21:37:37.253Z,13.80
2022-12-27T21:48:04.818Z,14.40
2022-12-27T21:58:34.705Z,18.40
2022-12-27T22:09:03.922Z,14.60
2022-12-27T22:19:31.551Z,11.00
2022-12-27T22:29:59.118Z,11.60
2022-12-27T22:40:40.945Z,11.40
2022-12-27T22:51:17.728Z,10.80
2022-12-27T23:01:46.334Z,13.10
2022-12-27T23:22:40.543Z,14.30
2022-12-27T23:33:08.790Z,14.20
2022-12-27T23:43:55.695Z,13.90
2022-12-27T23:54:23.753Z,9.50
